createdAt,value
2022-09-14T00:01:43.782Z,0.77
2022-09-14T00:04:18.140Z,0.82
2022-09-14T00:06:47.511Z,1.00
2022-09-14T00:09:23.115Z,0.82
2022-09-14T00:11:51.801Z,0.93
2022-09-14T00:14:20.376Z,1.00
2022-09-14T00:16:49.116Z,0.93
2022-09-14T00:19:25.711Z,0.90
2022-09-14T00:21:57.771Z,0.95
2022-09-14T00:24:30.607Z,0.80
2022-09-14T00:26:59.042Z,0.70
2022-09-14T00:29:27.261Z,0.80
2022-09-14T00:31:55.517Z,0.93
2022-09-14T00:34:23.794Z,1.08
2022-09-14T00:36:52.555Z,1.10
2022-09-14T00:39:23.961Z,1.08
2022-09-14T00:41:52.717Z,0.90
2022-09-14T00:44:24.745Z,0.80
2022-09-14T00:46:57.462Z,1.30
2022-09-14T00:49:40.673Z,0.80
2022-09-14T00:52:28.689Z,0.80
2022-09-14T00:55:08.000Z,0.90
2022-09-14T00:57:45.329Z,0.80
2022-09-14T01:00:20.353Z,1.42
2022-09-14T01:02:48.360Z,1.00
2022-09-14T01:05:17.640Z,0.82
2022-09-14T01:08:31.190Z,0.93
2022-09-14T01:11:16.631Z,0.73
2022-09-14T01:14:25.976Z,1.08
2022-09-14T01:17:44.988Z,0.98
2022-09-14T01:20:43.005Z,1.20
2022-09-14T01:23:49.678Z,1.00
2022-09-14T01:26:59.305Z,0.93
2022-09-14T01:29:49.776Z,1.00
2022-09-14T01:32:31.017Z,0.90
2022-09-14T01:38:30.208Z,1.10
2022-09-14T01:41:02.721Z,1.00
2022-09-14T01:43:56.362Z,1.23
2022-09-14T01:46:43.101Z,1.20
2022-09-14T01:49:24.859Z,1.27
2022-09-14T01:52:02.612Z,1.10
2022-09-14T01:54:48.372Z,1.00
2022-09-14T01:57:35.752Z,1.00
2022-09-14T02:00:13.482Z,1.15
2022-09-14T02:02:55.623Z,0.82
2022-09-14T02:06:00.516Z,1.02
2022-09-14T02:08:30.586Z,0.98
2022-09-14T02:10:59.304Z,0.90
2022-09-14T02:13:28.194Z,1.05
2022-09-14T02:15:56.694Z,1.00
2022-09-14T02:18:25.134Z,1.30
2022-09-14T02:21:04.646Z,1.00
2022-09-14T02:23:35.216Z,1.27
2022-09-14T02:26:03.640Z,0.90
2022-09-14T02:28:31.954Z,1.00
2022-09-14T02:31:34.866Z,1.20
2022-09-14T02:34:30.609Z,1.08
2022-09-14T02:37:12.150Z,1.10
2022-09-14T02:40:36.936Z,0.98
2022-09-14T02:43:26.804Z,1.15
2022-09-14T02:46:33.515Z,1.40
2022-09-14T02:49:23.336Z,0.93
2022-09-14T02:52:21.217Z,1.38
2022-09-14T02:55:15.020Z,0.90
2022-09-14T02:58:13.431Z,1.13
2022-09-14T03:00:49.039Z,1.10
2022-09-14T03:03:21.963Z,1.00
2022-09-14T03:05:50.236Z,1.10
2022-09-14T03:08:18.426Z,1.60
2022-09-14T03:10:46.739Z,1.52
2022-09-14T03:13:14.888Z,1.17
2022-09-14T03:15:43.370Z,1.00
2022-09-14T03:18:14.425Z,1.20
2022-09-14T03:20:43.309Z,1.17
2022-09-14T03:23:12.435Z,1.30
2022-09-14T03:25:43.813Z,1.27
2022-09-14T03:28:13.042Z,1.10
2022-09-14T03:30:41.632Z,1.40
2022-09-14T03:33:09.934Z,1.40
2022-09-14T03:35:38.114Z,1.00
2022-09-14T03:38:06.605Z,1.20
2022-09-14T03:40:34.935Z,1.20
2022-09-14T03:43:03.184Z,1.05
2022-09-14T03:45:31.383Z,1.30
2022-09-14T03:47:59.526Z,1.35
2022-09-14T03:50:29.384Z,1.25
2022-09-14T03:52:58.133Z,1.15
2022-09-14T03:55:26.616Z,1.08
2022-09-14T03:57:55.943Z,1.33
2022-09-14T04:00:24.316Z,1.25
2022-09-14T04:02:52.765Z,1.20
2022-09-14T04:05:22.093Z,1.30
2022-09-14T04:07:50.444Z,1.10
2022-09-14T04:10:18.906Z,1.35
2022-09-14T04:12:47.105Z,1.20
2022-09-14T04:15:15.360Z,1.33
2022-09-14T04:17:43.718Z,1.15
2022-09-14T04:20:11.992Z,1.33
2022-09-14T04:22:40.135Z,1.17
2022-09-14T04:25:08.463Z,1.20
2022-09-14T04:27:36.856Z,1.65
2022-09-14T04:30:06.550Z,1.40
2022-09-14T04:32:34.859Z,1.35
2022-09-14T04:35:03.207Z,1.40
2022-09-14T04:37:32.799Z,1.70
2022-09-14T04:40:01.339Z,1.27
2022-09-14T04:42:30.106Z,1.27
2022-09-14T04:44:58.363Z,1.58
2022-09-14T04:47:26.604Z,1.30
2022-09-14T04:49:54.794Z,1.38
2022-09-14T04:52:24.556Z,1.10
2022-09-14T04:54:52.732Z,1.50
2022-09-14T04:57:20.957Z,0.85
2022-09-14T04:59:49.129Z,1.10
2022-09-14T05:02:17.501Z,1.35
2022-09-14T05:04:45.754Z,1.27
2022-09-14T05:07:14.004Z,1.20
2022-09-14T05:09:42.535Z,1.70
2022-09-14T05:12:10.722Z,1.55
2022-09-14T05:14:39.182Z,1.42
2022-09-14T05:17:07.330Z,1.55
2022-09-14T05:19:35.499Z,1.67
2022-09-14T05:22:03.699Z,1.52
2022-09-14T05:24:33.031Z,1.73
2022-09-14T05:27:02.378Z,1.48
2022-09-14T05:29:31.772Z,1.85
2022-09-14T05:32:00.133Z,1.20
2022-09-14T05:34:28.363Z,1.40
2022-09-14T05:36:56.516Z,1.70
2022-09-14T05:39:25.112Z,1.80
2022-09-14T05:41:53.495Z,1.90
2022-09-14T05:44:21.767Z,1.67
2022-09-14T05:46:50.080Z,1.23
2022-09-14T05:49:18.420Z,1.70
2022-09-14T05:51:46.723Z,1.50
2022-09-14T05:54:15.428Z,1.50
2022-09-14T05:56:43.727Z,1.70
2022-09-14T05:59:11.949Z,1.70
2022-09-14T06:01:40.298Z,1.73
2022-09-14T06:04:08.819Z,1.20
2022-09-14T06:06:37.065Z,1.35
2022-09-14T06:09:05.510Z,1.50
2022-09-14T06:11:38.242Z,1.88
2022-09-14T06:14:07.329Z,1.70
2022-09-14T06:16:35.832Z,1.58
2022-09-14T06:19:04.756Z,1.75
2022-09-14T06:21:35.104Z,1.70
2022-09-14T06:24:03.658Z,1.38
2022-09-14T06:26:32.134Z,1.95
2022-09-14T06:29:00.295Z,1.95
2022-09-14T06:31:28.526Z,1.80
2022-09-14T06:33:56.773Z,2.72
2022-09-14T06:36:27.677Z,2.35
2022-09-14T06:38:55.755Z,2.17
2022-09-14T06:41:30.350Z,2.55
2022-09-14T06:44:01.579Z,2.55
2022-09-14T06:46:33.691Z,2.30
2022-09-14T06:49:11.358Z,2.50
2022-09-14T06:51:44.295Z,2.95
2022-09-14T06:54:17.724Z,1.85
2022-09-14T06:56:46.828Z,2.15
2022-09-14T06:59:17.410Z,1.80
2022-09-14T07:01:46.359Z,1.42
2022-09-14T07:04:14.836Z,1.55
2022-09-14T07:06:49.804Z,1.77
2022-09-14T07:09:19.734Z,1.83
2022-09-14T07:11:49.038Z,2.03
2022-09-14T07:14:17.290Z,1.73
2022-09-14T07:16:45.048Z,1.98
2022-09-14T07:19:15.241Z,1.38
2022-09-14T07:21:43.996Z,1.98
2022-09-14T07:24:14.723Z,1.85
2022-09-14T07:26:43.758Z,1.63
2022-09-14T07:29:18.240Z,2.28
2022-09-14T07:31:56.332Z,2.10
2022-09-14T07:34:25.347Z,2.00
2022-09-14T07:36:54.096Z,1.60
2022-09-14T07:39:21.924Z,1.67
2022-09-14T07:41:50.223Z,1.55
2022-09-14T07:44:18.382Z,1.90
2022-09-14T07:46:46.894Z,1.60
2022-09-14T07:49:16.479Z,1.77
2022-09-14T07:51:45.430Z,2.00
2022-09-14T07:54:17.754Z,1.80
2022-09-14T07:56:46.452Z,1.42
2022-09-14T07:59:34.971Z,2.03
2022-09-14T08:02:07.318Z,1.38
2022-09-14T08:04:42.406Z,1.60
2022-09-14T08:07:10.629Z,2.30
2022-09-14T08:09:39.390Z,1.90
2022-09-14T08:12:07.723Z,2.35
2022-09-14T08:14:36.930Z,1.95
2022-09-14T08:17:05.308Z,2.40
2022-09-14T08:19:33.471Z,2.60
2022-09-14T08:22:01.690Z,2.97
2022-09-14T08:24:30.333Z,3.17
2022-09-14T08:26:58.233Z,2.42
2022-09-14T08:29:26.508Z,1.92
2022-09-14T08:31:54.732Z,2.88
2022-09-14T08:34:23.115Z,1.67
2022-09-14T08:36:51.553Z,1.23
2022-09-14T08:39:20.528Z,1.63
2022-09-14T08:41:56.563Z,3.28
2022-09-14T08:44:43.060Z,3.30
2022-09-14T08:47:27.982Z,1.30
2022-09-14T08:50:13.578Z,1.33
2022-09-14T08:52:45.117Z,1.55
2022-09-14T08:55:45.337Z,1.23
2022-09-14T08:58:59.839Z,1.00
2022-09-14T09:01:45.972Z,1.02
2022-09-14T09:04:29.630Z,1.27
2022-09-14T09:07:32.288Z,1.02
2022-09-14T09:10:01.389Z,1.13
2022-09-14T09:12:57.534Z,1.40
2022-09-14T09:15:41.147Z,1.27
2022-09-14T09:18:20.840Z,1.10
2022-09-14T09:20:58.024Z,1.00
2022-09-14T09:23:29.955Z,1.00
2022-09-14T09:26:32.801Z,1.40
2022-09-14T09:29:03.249Z,1.00
2022-09-14T09:31:55.087Z,1.10
2022-09-14T09:34:41.980Z,0.80
2022-09-14T09:40:20.890Z,0.77
2022-09-14T09:43:38.896Z,1.08
2022-09-14T09:46:10.337Z,1.00
2022-09-14T09:48:45.388Z,0.80
2022-09-14T09:51:24.207Z,0.77
2022-09-14T09:54:07.055Z,1.02
2022-09-14T09:56:52.123Z,1.00
2022-09-14T09:59:42.360Z,1.52
2022-09-14T10:02:32.172Z,1.23
2022-09-14T10:05:17.989Z,0.70
2022-09-14T10:10:46.463Z,0.75
2022-09-14T10:13:26.057Z,0.90
2022-09-14T10:15:54.595Z,0.90
2022-09-14T10:18:23.252Z,0.80
2022-09-14T10:20:53.907Z,0.70
2022-09-14T10:26:12.010Z,0.75
2022-09-14T10:28:49.633Z,1.00
2022-09-14T10:31:20.820Z,0.63
2022-09-14T10:33:56.394Z,0.68
2022-09-14T10:36:44.379Z,1.10
2022-09-14T10:39:52.610Z,1.08
2022-09-14T10:42:40.853Z,1.05
2022-09-14T10:45:35.875Z,0.75
2022-09-14T10:48:46.799Z,0.80
2022-09-14T10:51:52.861Z,0.57
2022-09-14T10:54:39.725Z,0.68
2022-09-14T10:57:43.242Z,0.73
2022-09-14T11:00:20.004Z,0.63
2022-09-14T11:03:24.606Z,0.57
2022-09-14T11:06:23.571Z,0.57
2022-09-14T11:13:55.003Z,0.88
2022-09-14T11:17:15.926Z,1.00
2022-09-14T11:19:56.840Z,1.02
2022-09-14T11:27:58.737Z,0.93
2022-09-14T11:30:42.178Z,0.80
2022-09-14T11:33:21.126Z,0.60
2022-09-14T11:35:58.617Z,0.93
2022-09-14T11:38:36.426Z,0.98
2022-09-14T11:41:21.481Z,0.73
2022-09-14T11:44:05.188Z,1.02
2022-09-14T11:46:39.920Z,1.50
2022-09-14T11:49:18.741Z,0.95
2022-09-14T11:52:16.821Z,0.65
2022-09-14T11:54:46.974Z,0.60
2022-09-14T11:57:24.552Z,0.80
2022-09-14T12:00:27.785Z,0.80
2022-09-14T12:03:22.570Z,0.70
2022-09-14T12:05:50.812Z,0.60
2022-09-14T12:08:30.929Z,0.88
2022-09-14T12:11:07.755Z,0.77
2022-09-14T12:13:37.510Z,0.60
2022-09-14T12:16:13.119Z,1.08
2022-09-14T12:18:56.625Z,0.70
2022-09-14T12:21:31.288Z,0.75
2022-09-14T12:24:15.044Z,0.95
2022-09-14T12:26:43.355Z,0.90
2022-09-14T12:29:33.582Z,0.80
2022-09-14T12:32:05.900Z,0.88
2022-09-14T12:34:34.432Z,0.63
2022-09-14T12:37:30.011Z,0.82
2022-09-14T12:40:20.116Z,0.80
2022-09-14T12:42:48.547Z,0.77
2022-09-14T12:46:31.793Z,0.95
2022-09-14T12:49:24.427Z,0.60
2022-09-14T12:51:52.957Z,1.00
2022-09-14T12:54:59.690Z,0.75
2022-09-14T12:57:45.608Z,0.75
2022-09-14T13:00:18.212Z,0.60
2022-09-14T13:03:18.900Z,0.80
2022-09-14T13:05:47.489Z,0.70
2022-09-14T13:08:24.132Z,0.90
2022-09-14T13:10:53.209Z,1.00
2022-09-14T13:13:31.766Z,0.90
2022-09-14T13:16:05.002Z,1.02
2022-09-14T13:18:38.183Z,0.57
2022-09-14T13:21:24.907Z,0.95
2022-09-14T13:23:53.203Z,0.65
2022-09-14T13:26:29.243Z,1.27
2022-09-14T13:29:00.564Z,1.13
2022-09-14T13:31:38.026Z,1.00
2022-09-14T13:34:06.342Z,0.77
2022-09-14T13:36:42.216Z,0.60
2022-09-14T13:39:31.282Z,0.95
2022-09-14T13:42:00.063Z,0.90
2022-09-14T13:44:46.682Z,0.90
2022-09-14T13:47:20.471Z,0.73
2022-09-14T13:49:52.112Z,0.70
2022-09-14T13:52:49.698Z,0.57
2022-09-14T13:55:23.084Z,0.80
2022-09-14T13:58:09.371Z,0.60
2022-09-14T14:01:06.926Z,0.80
2022-09-14T14:03:47.831Z,0.82
2022-09-14T14:09:06.993Z,0.60
2022-09-14T14:11:52.878Z,0.70
2022-09-14T14:14:30.766Z,1.00
2022-09-14T14:17:36.881Z,0.98
2022-09-14T14:20:26.412Z,0.82
2022-09-14T14:23:10.849Z,0.90
2022-09-14T14:25:52.032Z,0.73
2022-09-14T14:28:25.930Z,0.70
2022-09-14T14:30:57.285Z,0.90
2022-09-14T14:33:25.703Z,1.52
2022-09-14T14:35:56.395Z,0.80
2022-09-14T14:40:55.095Z,1.10
2022-09-14T14:43:25.863Z,1.20
2022-09-14T14:48:29.626Z,1.10
2022-09-14T14:50:57.950Z,0.50
2022-09-14T14:53:26.386Z,0.77
2022-09-14T14:55:54.692Z,0.90
2022-09-14T14:58:23.743Z,1.13
2022-09-14T15:00:52.890Z,1.35
2022-09-14T15:03:20.765Z,0.90
2022-09-14T15:05:49.726Z,1.10
2022-09-14T15:08:20.026Z,0.90
2022-09-14T15:10:49.373Z,0.50
2022-09-14T15:13:18.553Z,0.98
2022-09-14T15:15:46.890Z,0.98
2022-09-14T15:18:15.092Z,1.10
2022-09-14T15:20:43.461Z,0.70
2022-09-14T15:23:14.098Z,0.90
2022-09-14T15:28:10.353Z,1.15
2022-09-14T15:30:38.715Z,1.35
2022-09-14T15:33:07.113Z,0.90
2022-09-14T15:35:35.406Z,1.20
2022-09-14T15:38:04.170Z,0.80
2022-09-14T15:40:33.027Z,1.30
2022-09-14T15:43:01.284Z,0.90
2022-09-14T15:45:29.534Z,0.68
2022-09-14T15:47:57.732Z,0.70
2022-09-14T15:50:25.949Z,0.60
2022-09-14T15:52:53.900Z,1.27
2022-09-14T15:55:22.440Z,0.90
2022-09-14T15:57:50.601Z,0.85
2022-09-14T16:00:19.483Z,0.90
2022-09-14T16:02:50.174Z,0.70
2022-09-14T16:07:47.127Z,1.00
2022-09-14T16:10:15.393Z,1.40
2022-09-14T16:12:43.566Z,1.65
2022-09-14T16:15:11.872Z,0.73
2022-09-14T16:17:40.035Z,0.77
2022-09-14T16:20:10.372Z,1.00
2022-09-14T16:22:38.644Z,1.10
2022-09-14T16:25:06.929Z,1.02
2022-09-14T16:27:35.359Z,0.63
2022-09-14T16:30:03.809Z,1.05
2022-09-14T16:32:31.971Z,0.68
2022-09-14T16:35:00.859Z,0.93
2022-09-14T16:37:30.668Z,1.33
2022-09-14T16:39:59.818Z,0.95
2022-09-14T16:42:28.098Z,0.98
2022-09-14T16:44:56.231Z,0.90
2022-09-14T16:47:25.801Z,1.02
2022-09-14T16:49:53.856Z,0.93
2022-09-14T16:52:22.258Z,0.70
2022-09-14T16:54:55.404Z,0.90
2022-09-14T16:57:26.704Z,0.98
2022-09-14T16:59:54.889Z,0.80
2022-09-14T17:02:22.759Z,1.02
2022-09-14T17:04:51.112Z,0.80
2022-09-14T17:07:19.144Z,0.65
2022-09-14T17:09:47.665Z,1.00
2022-09-14T17:12:15.840Z,0.95
2022-09-14T17:14:44.083Z,0.95
2022-09-14T17:17:12.242Z,0.82
2022-09-14T17:19:43.509Z,0.80
2022-09-14T17:22:13.009Z,0.70
2022-09-14T17:24:41.180Z,0.88
2022-09-14T17:27:10.870Z,1.27
2022-09-14T17:29:40.683Z,1.75
2022-09-14T17:32:12.522Z,1.02
2022-09-14T17:34:42.894Z,1.13
2022-09-14T17:37:11.188Z,1.05
2022-09-14T17:39:38.964Z,0.85
2022-09-14T17:42:07.277Z,1.10
2022-09-14T17:44:35.792Z,0.95
2022-09-14T17:47:04.181Z,0.93
2022-09-14T17:49:32.525Z,0.73
2022-09-14T17:52:01.918Z,1.30
2022-09-14T17:54:31.108Z,1.10
2022-09-14T17:56:58.987Z,1.45
2022-09-14T17:59:27.612Z,1.30
2022-09-14T18:01:55.853Z,1.00
2022-09-14T18:04:24.245Z,1.30
2022-09-14T18:06:52.483Z,1.13
2022-09-14T18:09:24.255Z,1.00
2022-09-14T18:11:56.947Z,0.90
2022-09-14T18:14:25.684Z,1.10
2022-09-14T18:16:53.925Z,0.98
2022-09-14T18:19:22.006Z,1.10
2022-09-14T18:21:52.642Z,1.10
2022-09-14T18:26:49.851Z,1.20
2022-09-14T18:32:03.591Z,1.10
2022-09-14T18:34:31.808Z,1.42
2022-09-14T18:36:59.973Z,1.40
2022-09-14T18:39:28.132Z,1.60
2022-09-14T18:41:56.362Z,1.85
2022-09-14T18:44:24.560Z,1.15
2022-09-14T18:46:52.899Z,1.15
2022-09-14T18:49:20.783Z,1.38
2022-09-14T18:51:49.175Z,1.52
2022-09-14T18:54:18.307Z,1.63
2022-09-14T18:56:49.982Z,1.88
2022-09-14T18:59:18.315Z,1.67
2022-09-14T19:01:46.656Z,1.25
2022-09-14T19:04:15.723Z,2.05
2022-09-14T19:06:44.619Z,1.50
2022-09-14T19:09:13.128Z,1.70
2022-09-14T19:11:42.059Z,1.60
2022-09-14T19:14:12.584Z,1.58
2022-09-14T19:16:42.184Z,1.75
2022-09-14T19:19:14.931Z,1.80
2022-09-14T19:21:44.202Z,2.33
2022-09-14T19:24:15.303Z,2.00
2022-09-14T19:26:51.001Z,2.20
2022-09-14T19:29:23.584Z,2.05
2022-09-14T19:31:52.871Z,1.70
2022-09-14T19:34:25.044Z,1.83
2022-09-14T19:36:54.375Z,1.50
2022-09-14T19:39:24.289Z,1.60
2022-09-14T19:41:52.848Z,2.20
2022-09-14T19:44:23.093Z,2.13
2022-09-14T19:46:51.495Z,1.65
2022-09-14T19:49:25.563Z,1.63
2022-09-14T19:51:54.080Z,1.70
2022-09-14T19:54:22.467Z,1.75
2022-09-14T19:56:50.725Z,1.85
2022-09-14T19:59:19.031Z,1.50
2022-09-14T20:01:47.253Z,1.60
2022-09-14T20:04:15.659Z,1.60
2022-09-14T20:07:09.179Z,1.67
2022-09-14T20:09:38.313Z,1.80
2022-09-14T20:12:06.236Z,1.73
2022-09-14T20:14:34.759Z,1.92
2022-09-14T20:17:03.114Z,1.70
2022-09-14T20:19:32.520Z,2.05
2022-09-14T20:22:00.826Z,2.42
2022-09-14T20:24:31.500Z,2.08
2022-09-14T20:27:02.013Z,2.30
2022-09-14T20:29:33.997Z,2.35
2022-09-14T20:32:04.800Z,2.17
2022-09-14T20:34:34.296Z,1.90
2022-09-14T20:37:02.464Z,2.17
2022-09-14T20:39:31.540Z,2.22
2022-09-14T20:41:59.884Z,2.13
2022-09-14T20:44:28.056Z,2.60
2022-09-14T20:46:56.274Z,2.10
2022-09-14T20:49:24.611Z,2.65
2022-09-14T20:51:54.115Z,3.10
2022-09-14T20:54:22.725Z,2.50
2022-09-14T20:56:50.579Z,2.78
2022-09-14T20:59:25.573Z,2.60
2022-09-14T21:01:53.812Z,2.95
2022-09-14T21:04:25.370Z,2.97
2022-09-14T21:06:55.911Z,2.80
2022-09-14T21:09:25.952Z,2.75
2022-09-14T21:11:54.499Z,3.80
2022-09-14T21:14:22.738Z,3.10
2022-09-14T21:16:56.533Z,2.85
2022-09-14T21:19:28.112Z,3.05
2022-09-14T21:21:56.726Z,3.25
2022-09-14T21:24:25.256Z,3.80
2022-09-14T21:26:53.430Z,3.20
2022-09-14T21:29:23.774Z,3.10
2022-09-14T21:31:52.746Z,3.50
2022-09-14T21:34:21.419Z,2.45
2022-09-14T21:37:14.127Z,2.40
2022-09-14T21:39:42.076Z,1.83
2022-09-14T21:42:10.381Z,2.08
2022-09-14T21:44:38.132Z,2.53
2022-09-14T21:47:06.626Z,1.77
2022-09-14T21:49:35.205Z,2.15
2022-09-14T21:52:03.986Z,2.72
2022-09-14T21:54:32.192Z,2.40
2022-09-14T21:57:00.588Z,1.98
2022-09-14T21:59:28.848Z,2.70
2022-09-14T22:01:57.019Z,3.15
2022-09-14T22:04:26.089Z,2.85
2022-09-14T22:06:55.076Z,2.90
2022-09-14T22:09:28.270Z,2.88
2022-09-14T22:11:57.433Z,2.47
2022-09-14T22:14:29.360Z,2.42
2022-09-14T22:16:57.305Z,2.50
2022-09-14T22:19:30.402Z,2.80
2022-09-14T22:21:58.661Z,2.80
2022-09-14T22:24:37.743Z,2.83
2022-09-14T22:27:10.628Z,2.90
2022-09-14T22:29:42.981Z,2.85
2022-09-14T22:32:11.942Z,3.08
2022-09-14T22:34:48.813Z,2.83
2022-09-14T22:37:17.530Z,2.45
2022-09-14T22:39:46.807Z,2.42
2022-09-14T22:42:15.121Z,2.20
2022-09-14T22:44:43.308Z,2.35
2022-09-14T22:47:12.536Z,2.58
2022-09-14T22:49:40.735Z,2.13
2022-09-14T22:52:08.902Z,1.92
2022-09-14T22:54:36.729Z,2.22
2022-09-14T22:57:04.975Z,2.17
2022-09-14T22:59:33.227Z,2.38
2022-09-14T23:02:01.495Z,2.33
2022-09-14T23:04:31.030Z,2.90
2022-09-14T23:07:00.101Z,3.38
2022-09-14T23:09:28.382Z,3.08
2022-09-14T23:11:56.714Z,2.83
2022-09-14T23:14:25.220Z,2.70
2022-09-14T23:16:53.037Z,2.70
2022-09-14T23:19:21.171Z,2.50
2022-09-14T23:21:49.102Z,1.98
2022-09-14T23:24:17.453Z,1.98
2022-09-14T23:26:45.625Z,1.83
2022-09-14T23:29:16.957Z,2.90
2022-09-14T23:31:46.056Z,3.35
2022-09-14T23:34:14.517Z,2.70
2022-09-14T23:36:42.323Z,2.55
2022-09-14T23:39:10.391Z,2.83
2022-09-14T23:41:39.795Z,3.65
2022-09-14T23:44:09.696Z,2.65
2022-09-14T23:46:37.480Z,3.65
2022-09-14T23:49:05.753Z,2.80
2022-09-14T23:51:34.331Z,2.83
2022-09-14T23:54:02.093Z,2.88
2022-09-14T23:56:31.261Z,2.97
2022-09-14T23:58:59.479Z,2.47
